Time;durP1;ratioP1;P1;durP2;ratioP2;P2;SDS_P1;SDS_P2;PMS_P1;PMS_P2;Temp;Humidity;BMP_temperature;BMP_pressure;BME280_temperature;BME280_humidity;BME280_pressure;Samples;Min_cycle;Max_cycle;Signal;HPM_P1;HPM_P2
2021/03/08 00:00:22;;;;;;;18.10;8.90;;;0.80;69.70;;;;;;4975975;28;20031;-71
2021/03/08 00:02:49;;;;;;;12.60;6.20;;;0.80;69.70;;;;;;4974916;28;20094;-71
2021/03/08 00:05:16;;;;;;;18.20;8.93;;;0.80;70.00;;;;;;4974609;28;20336;-71
2021/03/08 00:07:44;;;;;;;18.07;9.03;;;0.80;70.80;;;;;;4956953;28;20113;-71
2021/03/08 00:10:10;;;;;;;17.43;8.57;;;0.70;70.20;;;;;;4956431;29;20103;-71
2021/03/08 00:12:35;;;;;;;17.20;8.93;;;0.80;70.10;;;;;;4963675;28;20034;-71
2021/03/08 00:15:02;;;;;;;15.37;8.67;;;0.70;70.00;;;;;;4974311;28;20168;-71
2021/03/08 00:17:27;;;;;;;19.13;8.50;;;0.70;69.70;;;;;;4976644;28;20046;-70
2021/03/08 00:19:53;;;;;;;17.47;8.57;;;0.70;69.80;;;;;;4974941;28;20105;-71
2021/03/08 00:22:19;;;;;;;15.13;8.03;;;0.60;70.10;;;;;;4974361;28;20042;-71
2021/03/08 00:24:44;;;;;;;16.47;8.50;;;0.60;70.40;;;;;;4969592;28;20040;-71
2021/03/08 00:27:10;;;;;;;18.97;9.53;;;0.50;70.40;;;;;;4946104;29;20032;-72
2021/03/08 00:29:36;;;;;;;15.97;8.53;;;0.50;70.50;;;;;;4937542;29;20099;-71
2021/03/08 00:32:01;;;;;;;16.30;8.63;;;0.50;70.10;;;;;;4972723;28;20034;-71
2021/03/08 00:34:27;;;;;;;15.97;8.83;;;0.50;70.40;;;;;;4974114;28;20484;-71
2021/03/08 00:36:52;;;;;;;13.83;8.23;;;0.40;70.40;;;;;;4974519;28;20046;-71
2021/03/08 00:39:18;;;;;;;16.60;8.13;;;0.40;70.40;;;;;;4975221;28;20380;-72
2021/03/08 00:41:44;;;;;;;17.10;9.03;;;0.50;70.70;;;;;;4974481;28;20046;-72
2021/03/08 00:44:09;;;;;;;15.73;8.60;;;0.50;70.60;;;;;;4973864;28;20035;-72
2021/03/08 00:46:36;;;;;;;17.13;8.13;;;0.50;69.80;;;;;;4974493;28;20090;-72
2021/03/08 00:49:03;;;;;;;16.07;8.20;;;0.50;70.70;;;;;;4961502;28;20042;-72
2021/03/08 00:51:29;;;;;;;13.00;8.00;;;0.50;69.60;;;;;;4954969;28;20035;-72
2021/03/08 00:53:55;;;;;;;14.57;7.53;;;0.40;69.20;;;;;;4955030;28;20485;-71
2021/03/08 00:56:20;;;;;;;14.50;8.03;;;0.40;69.60;;;;;;4954327;28;20043;-71
2021/03/08 00:58:46;;;;;;;14.77;7.57;;;0.40;69.60;;;;;;4955014;28;20043;-71
2021/03/08 01:01:12;;;;;;;12.33;7.10;;;0.40;69.80;;;;;;4954134;29;20039;-71
2021/03/08 01:03:37;;;;;;;16.70;8.33;;;0.40;69.60;;;;;;4954391;29;20063;-71
2021/03/08 01:06:03;;;;;;;13.63;8.10;;;0.40;69.30;;;;;;4954366;28;20070;-72
2021/03/08 01:08:29;;;;;;;15.80;7.47;;;0.40;69.10;;;;;;4954760;29;20066;-72
2021/03/08 01:10:55;;;;;;;14.67;7.60;;;0.30;69.40;;;;;;4954756;28;20046;-72
2021/03/08 01:13:21;;;;;;;13.97;7.70;;;0.30;69.50;;;;;;4954083;28;20086;-72
2021/03/08 01:15:50;;;;;;;13.70;8.60;;;0.30;69.60;;;;;;4955819;28;20078;-71
2021/03/08 01:18:20;;;;;;;16.17;8.27;;;0.20;69.40;;;;;;4955312;28;20122;-72
2021/03/08 01:20:46;;;;;;;16.17;8.80;;;0.30;69.40;;;;;;4954527;29;20042;-72
2021/03/08 01:23:12;;;;;;;17.77;8.83;;;0.20;69.60;;;;;;4953921;28;20035;-72
2021/03/08 01:25:38;;;;;;;16.00;8.60;;;0.30;69.60;;;;;;4954514;28;20043;-72
2021/03/08 01:28:04;;;;;;;15.03;8.30;;;0.30;69.60;;;;;;4955212;28;20039;-72
2021/03/08 01:30:40;;;;;;;13.33;7.80;;;0.30;69.30;;;;;;4955566;28;20109;-72
2021/03/08 01:33:06;;;;;;;14.47;8.00;;;0.30;69.20;;;;;;4954968;28;20039;-72
2021/03/08 01:35:33;;;;;;;14.13;7.80;;;0.20;69.60;;;;;;4955603;28;20039;-72
2021/03/08 01:37:59;;;;;;;16.40;7.97;;;0.20;69.50;;;;;;4953980;29;20047;-71
2021/03/08 01:40:26;;;;;;;14.83;7.40;;;0.10;69.70;;;;;;4953560;29;20090;-71
2021/03/08 01:42:53;;;;;;;17.00;8.17;;;0.10;70.70;;;;;;4955142;29;20053;-72
2021/03/08 01:45:21;;;;;;;14.80;8.10;;;0.00;71.70;;;;;;4953793;28;20067;-72
2021/03/08 01:47:48;;;;;;;15.37;7.60;;;0.10;71.60;;;;;;4954009;29;20035;-71
2021/03/08 01:50:16;;;;;;;15.80;8.13;;;0.20;70.80;;;;;;4953347;29;20091;-72
2021/03/08 01:52:42;;;;;;;14.13;7.97;;;0.30;71.00;;;;;;4953945;29;20045;-71
2021/03/08 01:55:08;;;;;;;15.97;7.87;;;0.30;71.00;;;;;;4953242;29;20125;-71
2021/03/08 01:57:34;;;;;;;13.10;7.50;;;0.30;71.10;;;;;;4954809;29;20173;-72
2021/03/08 02:00:00;;;;;;;12.77;7.63;;;0.40;71.00;;;;;;4954864;29;20055;-71
2021/03/08 02:02:26;;;;;;;17.67;8.37;;;0.40;71.00;;;;;;4952761;29;20047;-72
2021/03/08 02:04:51;;;;;;;13.97;7.87;;;0.30;72.00;;;;;;4953870;29;20436;-72
2021/03/08 02:07:17;;;;;;;15.10;7.50;;;0.30;71.70;;;;;;4953111;29;20481;-72
2021/03/08 02:09:43;;;;;;;13.67;7.33;;;0.30;71.90;;;;;;4953415;29;20099;-72
2021/03/08 02:12:28;;;;;;;13.77;7.90;;;0.30;72.20;;;;;;4953137;29;20031;-72
2021/03/08 02:15:19;;;;;;;14.60;7.40;;;0.30;72.50;;;;;;4954963;29;20039;-72
2021/03/08 02:17:54;;;;;;;13.50;7.47;;;0.40;72.50;;;;;;4953678;29;20130;-72
2021/03/08 02:20:42;;;;;;;14.50;7.50;;;0.40;72.10;;;;;;4954000;29;20137;-72
2021/03/08 02:23:19;;;;;;;15.20;8.67;;;0.30;72.20;;;;;;4953063;29;20039;-71
2021/03/08 02:26:09;;;;;;;13.37;7.57;;;0.20;72.70;;;;;;4953747;29;20043;-72
2021/03/08 02:28:55;;;;;;;13.40;8.10;;;0.20;72.80;;;;;;4953531;29;20079;-71
2021/03/08 02:31:22;;;;;;;18.30;8.13;;;0.10;73.10;;;;;;4952765;29;20035;-72
2021/03/08 02:33:55;;;;;;;15.63;8.47;;;0.00;73.50;;;;;;4953082;29;20058;-72
2021/03/08 02:36:24;;;;;;;15.17;8.43;;;0.00;73.40;;;;;;4953933;29;20036;-72
2021/03/08 02:38:59;;;;;;;14.80;7.77;;;0.10;73.40;;;;;;4954372;29;20043;-71
2021/03/08 02:41:27;;;;;;;14.80;8.10;;;0.10;73.10;;;;;;4952779;29;20514;-71
2021/03/08 02:44:02;;;;;;;21.10;8.43;;;0.20;72.70;;;;;;4954531;29;20114;-71
2021/03/08 02:46:30;;;;;;;14.57;7.80;;;0.10;72.80;;;;;;4953966;29;20043;-71
2021/03/08 02:49:01;;;;;;;14.20;8.17;;;0.00;73.10;;;;;;4953154;29;20040;-71
2021/03/08 02:51:29;;;;;;;14.80;8.00;;;-0.10;73.40;;;;;;4952738;29;20102;-71
2021/03/08 02:53:58;;;;;;;15.30;8.37;;;-0.10;73.70;;;;;;4953295;29;20035;-71
2021/03/08 02:56:29;;;;;;;17.27;8.53;;;-0.20;73.90;;;;;;4953768;28;20042;-71
2021/03/08 02:58:56;;;;;;;11.18;6.30;;;-0.20;74.50;;;;;;4957255;29;20393;-71
2021/03/08 03:01:22;;;;;;;13.70;7.37;;;-0.10;73.70;;;;;;4957414;29;20039;-71
2021/03/08 03:03:56;;;;;;;15.93;8.50;;;-0.10;73.60;;;;;;4954454;29;20067;-71
2021/03/08 03:06:37;;;;;;;16.87;8.57;;;-0.10;73.30;;;;;;4956362;29;20039;-71
2021/03/08 03:09:12;;;;;;;17.60;8.97;;;-0.10;73.30;;;;;;4957054;29;20492;-71
2021/03/08 03:11:43;;;;;;;18.23;8.73;;;-0.10;73.30;;;;;;4957142;29;20389;-70
2021/03/08 03:14:11;;;;;;;17.47;8.50;;;-0.20;73.80;;;;;;4957312;29;20047;-71
2021/03/08 03:16:39;;;;;;;14.33;8.83;;;-0.20;73.90;;;;;;4958030;29;20043;-71
2021/03/08 03:19:06;;;;;;;15.97;8.50;;;-0.10;73.90;;;;;;4956751;29;20059;-71
2021/03/08 03:21:34;;;;;;;15.83;8.10;;;-0.10;74.10;;;;;;4956700;29;20106;-71
2021/03/08 03:24:01;;;;;;;16.87;8.57;;;-0.10;74.20;;;;;;4956704;29;20063;-71
2021/03/08 03:26:29;;;;;;;16.60;8.63;;;-0.20;74.30;;;;;;4957272;29;20253;-71
2021/03/08 03:28:55;;;;;;;16.10;8.80;;;-0.20;74.40;;;;;;4956564;29;20031;-71
2021/03/08 03:31:23;;;;;;;17.10;8.60;;;-0.20;74.60;;;;;;4955814;29;20042;-71
2021/03/08 03:33:50;;;;;;;16.37;8.63;;;-0.20;74.30;;;;;;4956454;29;20043;-71
2021/03/08 03:36:16;;;;;;;21.47;9.97;;;-0.30;74.60;;;;;;4955906;29;20043;-70
2021/03/08 03:38:43;;;;;;;17.23;8.33;;;-0.30;75.00;;;;;;4956724;29;20069;-71
2021/03/08 03:41:09;;;;;;;16.13;9.17;;;-0.40;75.40;;;;;;4955719;29;20038;-71
2021/03/08 03:43:36;;;;;;;17.83;9.10;;;-0.30;75.40;;;;;;4957575;29;20039;-71
2021/03/08 03:46:05;;;;;;;18.50;9.97;;;-0.20;75.40;;;;;;4956295;29;20035;-70
2021/03/08 03:48:31;;;;;;;16.20;9.03;;;-0.20;75.20;;;;;;4955604;29;20543;-71
2021/03/08 03:50:57;;;;;;;19.93;9.80;;;-0.20;75.20;;;;;;4956108;29;20042;-72
2021/03/08 03:53:23;;;;;;;20.57;9.30;;;-0.30;75.40;;;;;;4955584;29;20043;-73
2021/03/08 03:55:49;;;;;;;17.33;9.37;;;-0.40;75.50;;;;;;4956038;29;20528;-72
2021/03/08 03:58:14;;;;;;;14.67;8.67;;;-0.50;75.80;;;;;;4956979;29;20046;-73
2021/03/08 04:00:47;;;;;;;14.57;8.83;;;-0.50;75.90;;;;;;4957216;29;20039;-73
2021/03/08 04:03:18;;;;;;;21.47;9.37;;;-0.50;75.60;;;;;;4955197;29;20062;-73
2021/03/08 04:05:44;;;;;;;16.00;8.97;;;-0.50;75.30;;;;;;4957291;29;20062;-72
2021/03/08 04:08:12;;;;;;;17.80;8.90;;;-0.40;75.00;;;;;;4954195;28;20090;-73
2021/03/08 04:10:40;;;;;;;16.83;8.63;;;-0.40;75.10;;;;;;4957081;29;20035;-72
2021/03/08 04:13:13;;;;;;;17.47;8.90;;;-0.40;75.20;;;;;;4956739;29;20111;-73
2021/03/08 04:15:39;;;;;;;17.77;9.40;;;-0.40;75.30;;;;;;4955871;29;20043;-72
2021/03/08 04:18:06;;;;;;;13.83;8.37;;;-0.40;75.50;;;;;;4955691;29;20408;-72
2021/03/08 04:20:33;;;;;;;16.07;9.20;;;-0.40;75.30;;;;;;4956360;29;20035;-72
2021/03/08 04:23:04;;;;;;;16.83;8.57;;;-0.50;75.60;;;;;;4956869;29;20031;-72
2021/03/08 04:25:32;;;;;;;18.00;9.30;;;-0.40;75.70;;;;;;4956378;29;20035;-72
2021/03/08 04:27:59;;;;;;;15.30;9.37;;;-0.40;75.60;;;;;;4955547;29;20035;-70
2021/03/08 04:30:25;;;;;;;13.60;9.13;;;-0.30;75.60;;;;;;4954898;29;20031;-70
2021/03/08 04:32:53;;;;;;;17.97;9.37;;;-0.20;75.30;;;;;;4955477;29;20397;-71
2021/03/08 04:35:23;;;;;;;18.30;9.37;;;-0.20;75.10;;;;;;4954820;29;20086;-70
2021/03/08 04:37:50;;;;;;;17.87;8.83;;;-0.30;75.20;;;;;;4955343;29;20485;-70
2021/03/08 04:40:17;;;;;;;18.63;9.30;;;-0.40;75.70;;;;;;4954911;29;20035;-70
2021/03/08 04:42:43;;;;;;;15.70;8.83;;;-0.40;75.70;;;;;;4955490;29;20046;-71
2021/03/08 04:45:11;;;;;;;19.00;10.13;;;-0.50;75.60;;;;;;4956446;29;20023;-71
2021/03/08 04:47:38;;;;;;;16.37;9.50;;;-0.60;76.00;;;;;;4955296;29;20444;-72
2021/03/08 04:50:07;;;;;;;19.70;9.73;;;-0.60;76.20;;;;;;4955139;29;20035;-70
2021/03/08 04:52:35;;;;;;;16.10;9.20;;;-0.60;76.10;;;;;;4955757;29;20031;-71
2021/03/08 04:55:01;;;;;;;16.60;8.90;;;-0.60;76.00;;;;;;4956558;29;20077;-70
2021/03/08 04:57:28;;;;;;;18.73;9.43;;;-0.60;75.60;;;;;;4954376;29;20043;-71
2021/03/08 04:59:53;;;;;;;17.27;9.07;;;-0.70;75.70;;;;;;4947327;29;20039;-70
2021/03/08 05:02:21;;;;;;;17.07;9.37;;;-0.70;76.10;;;;;;4954846;29;20504;-71
2021/03/08 05:04:50;;;;;;;17.33;9.10;;;-0.70;76.20;;;;;;4954984;29;20085;-70
2021/03/08 05:07:20;;;;;;;16.63;9.40;;;-0.70;76.00;;;;;;4954174;29;20476;-71
2021/03/08 05:09:48;;;;;;;17.07;9.33;;;-0.70;75.90;;;;;;4954899;29;20155;-70
2021/03/08 05:12:15;;;;;;;20.73;9.57;;;-0.70;75.80;;;;;;4954013;29;20067;-71
2021/03/08 05:14:43;;;;;;;17.63;9.63;;;-0.80;76.00;;;;;;4954706;29;20039;-70
2021/03/08 05:17:09;;;;;;;17.47;10.13;;;-0.80;76.20;;;;;;4954503;29;20039;-70
2021/03/08 05:19:38;;;;;;;17.80;9.90;;;-0.80;76.30;;;;;;4953824;28;20039;-70
2021/03/08 05:22:04;;;;;;;19.77;9.30;;;-0.80;76.40;;;;;;4955590;29;20114;-70
2021/03/08 05:24:30;;;;;;;21.87;10.37;;;-0.80;75.90;;;;;;4953911;29;20121;-70
2021/03/08 05:26:56;;;;;;;14.80;8.33;;;-0.80;75.90;;;;;;4954479;29;20473;-70
2021/03/08 05:29:22;;;;;;;16.93;8.57;;;-0.90;75.00;;;;;;4953834;29;20035;-70
2021/03/08 05:31:49;;;;;;;16.83;9.30;;;-1.00;75.30;;;;;;4954246;29;20138;-70
2021/03/08 05:34:18;;;;;;;18.67;9.57;;;-0.90;75.20;;;;;;4953694;29;20081;-73
2021/03/08 05:36:49;;;;;;;21.87;9.77;;;-0.90;74.90;;;;;;4955439;29;20042;-71
2021/03/08 05:39:18;;;;;;;15.05;8.45;;;-0.80;75.00;;;;;;4953829;29;20046;-73
2021/03/08 05:42:08;;;;;;;16.60;9.00;;;-0.80;74.70;;;;;;4954133;29;20039;-70
2021/03/08 05:44:34;;;;;;;17.77;8.83;;;-0.80;75.00;;;;;;4954871;29;20039;-70
2021/03/08 05:47:28;;;;;;;20.67;9.77;;;-0.80;75.00;;;;;;4954135;29;20050;-70
2021/03/08 05:50:15;;;;;;;18.50;10.33;;;-0.80;75.30;;;;;;4954030;29;20039;-71
2021/03/08 05:53:17;;;;;;;16.90;9.00;;;-0.90;75.50;;;;;;4953871;29;20062;-71
2021/03/08 05:56:09;;;;;;;16.75;10.27;;;-0.90;75.50;;;;;;4954094;29;20043;-71
2021/03/08 05:59:07;;;;;;;19.52;9.82;;;-1.00;76.00;;;;;;4953375;29;20050;-71
2021/03/08 06:01:51;;;;;;;17.57;9.37;;;-0.90;76.00;;;;;;4953279;29;20043;-71
2021/03/08 06:04:54;;;;;;;18.97;9.93;;;-0.90;76.10;;;;;;4954718;29;20051;-74
2021/03/08 06:07:49;;;;;;;17.30;9.60;;;-0.90;75.80;;;;;;4954389;28;20070;-71
2021/03/08 06:10:26;;;;;;;21.00;10.13;;;-0.90;76.00;;;;;;4953755;29;20039;-71
2021/03/08 06:12:59;;;;;;;17.83;9.60;;;-1.00;76.00;;;;;;4953799;29;20496;-71
2021/03/08 06:15:28;;;;;;;20.23;10.20;;;-1.00;76.80;;;;;;4952660;29;20042;-71
2021/03/08 06:17:55;;;;;;;18.67;9.60;;;-1.10;76.20;;;;;;4951903;29;20543;-71
2021/03/08 06:20:21;;;;;;;17.30;9.53;;;-1.00;76.10;;;;;;4954230;29;20488;-72
2021/03/08 06:22:48;;;;;;;16.53;10.13;;;-1.00;75.90;;;;;;4954791;29;20039;-71
2021/03/08 06:25:14;;;;;;;21.87;10.60;;;-0.90;75.80;;;;;;4954713;28;20124;-71
2021/03/08 06:27:44;;;;;;;18.97;10.27;;;-0.80;75.80;;;;;;4952604;28;20039;-71
2021/03/08 06:30:10;;;;;;;21.07;10.10;;;-0.80;75.90;;;;;;4952819;28;20046;-70
2021/03/08 06:32:36;;;;;;;23.47;11.03;;;-0.70;75.60;;;;;;4952536;29;20050;-71
2021/03/08 06:35:04;;;;;;;19.53;10.10;;;-0.70;75.20;;;;;;4954649;28;20036;-70
2021/03/08 06:37:34;;;;;;;20.57;9.93;;;-0.60;75.00;;;;;;4952662;28;20042;-71
2021/03/08 06:40:02;;;;;;;19.17;10.37;;;-0.60;75.00;;;;;;4953026;29;20051;-71
2021/03/08 06:51:18;;;;;;;18.17;9.43;;;-0.40;75.20;;;;;;4946704;28;19910;-71
2021/03/08 06:53:46;;;;;;;17.90;10.17;;;-0.40;75.00;;;;;;4953864;29;20039;-71
2021/03/08 06:56:20;;;;;;;16.80;9.33;;;-0.40;75.00;;;;;;4952757;29;20031;-71
2021/03/08 06:59:06;;;;;;;18.10;9.23;;;-0.40;75.10;;;;;;4954485;29;20039;-71
2021/03/08 07:01:43;;;;;;;;;;;;;;;;;;;;;
2021/03/08 07:04:16;;;;;;;16.67;10.17;;;-0.30;75.30;;;;;;4954506;29;20053;-71
2021/03/08 07:06:56;;;;;;;22.30;9.90;;;-0.30;75.50;;;;;;4936523;29;20043;-71
2021/03/08 07:09:22;;;;;;;21.53;9.90;;;-0.30;75.40;;;;;;4936675;29;20031;-71
2021/03/08 07:12:06;;;;;;;18.13;9.57;;;-0.30;75.90;;;;;;4954332;29;20039;-71
2021/03/08 07:14:32;;;;;;;19.80;10.07;;;-0.30;76.30;;;;;;4933317;29;20043;-71
2021/03/08 07:16:58;;;;;;;19.07;10.30;;;-0.20;75.90;;;;;;4950805;29;20373;-71
2021/03/08 07:19:24;;;;;;;18.30;10.00;;;-0.20;75.20;;;;;;4936439;29;20051;-71
2021/03/08 07:21:50;;;;;;;15.03;9.00;;;-0.10;75.00;;;;;;4952322;29;20122;-71
2021/03/08 07:24:16;;;;;;;16.77;9.00;;;0.00;74.60;;;;;;4906430;29;20046;-71
2021/03/08 07:26:54;;;;;;;18.40;9.43;;;0.00;74.60;;;;;;4916506;29;20040;-70
2021/03/08 07:29:21;;;;;;;17.60;9.50;;;0.10;74.70;;;;;;4914463;29;20477;-71
2021/03/08 07:31:51;;;;;;;17.10;9.23;;;0.10;74.20;;;;;;4924666;29;20506;-73
2021/03/08 07:34:18;;;;;;;21.83;8.93;;;0.20;74.10;;;;;;4908131;29;20036;-73
2021/03/08 07:37:04;;;;;;;19.20;9.73;;;0.20;74.60;;;;;;4924114;29;20044;-73
2021/03/08 07:39:29;;;;;;;18.83;9.23;;;0.20;74.80;;;;;;4915928;29;20127;-74
2021/03/08 07:41:58;;;;;;;20.67;8.97;;;0.20;74.10;;;;;;4912215;29;20140;-73
2021/03/08 07:44:25;;;;;;;16.87;8.97;;;0.20;74.60;;;;;;4937610;29;20062;-72
2021/03/08 07:46:52;;;;;;;20.07;9.37;;;0.20;74.40;;;;;;4921410;29;20130;-71
2021/03/08 07:49:32;;;;;;;19.93;9.80;;;0.30;74.10;;;;;;4920514;29;20035;-72
2021/03/08 07:52:10;;;;;;;17.93;8.63;;;0.30;74.20;;;;;;4921769;29;20046;-74
2021/03/08 07:54:55;;;;;;;21.30;10.17;;;0.40;74.90;;;;;;4921231;29;20032;-73
2021/03/08 07:57:25;;;;;;;15.93;8.93;;;0.40;75.00;;;;;;4920702;29;20126;-73
2021/03/08 07:59:51;;;;;;;16.70;8.70;;;0.50;74.70;;;;;;4920931;29;20052;-74
2021/03/08 08:02:29;;;;;;;;;;;;;;;;;;;;;
2021/03/08 08:04:56;;;;;;;15.77;9.10;;;0.60;73.60;;;;;;4956825;28;20469;-74
2021/03/08 08:07:22;;;;;;;19.77;9.33;;;0.80;73.10;;;;;;4955481;29;20039;-74
2021/03/08 08:09:49;;;;;;;16.43;8.60;;;0.80;72.60;;;;;;4955290;29;20077;-74
2021/03/08 08:12:21;;;;;;;14.70;8.77;;;0.90;72.20;;;;;;4955972;28;20063;-74
2021/03/08 08:14:47;;;;;;;;;;;0.90;72.30;;;;;;4955229;28;20039;-74
2021/03/08 08:17:19;;;;;;;18.60;8.63;;;1.00;72.30;;;;;;4955189;28;19996;-73
2021/03/08 08:19:46;;;;;;;14.43;8.70;;;1.00;72.20;;;;;;4954824;28;20053;-73
2021/03/08 08:22:33;;;;;;;15.60;8.80;;;1.00;71.70;;;;;;4955940;29;20131;-73
2021/03/08 08:25:03;;;;;;;17.97;8.70;;;1.10;71.50;;;;;;4954458;29;20063;-74
2021/03/08 08:27:32;;;;;;;16.07;9.13;;;1.20;71.60;;;;;;4954963;28;20039;-73
2021/03/08 08:30:02;;;;;;;15.83;8.70;;;1.30;71.00;;;;;;4955533;29;20031;-72
2021/03/08 08:32:48;;;;;;;14.77;8.33;;;1.30;70.60;;;;;;4950761;29;20070;-73
2021/03/08 08:35:31;;;;;;;16.07;8.97;;;1.30;70.30;;;;;;4956323;28;20031;-74
2021/03/08 08:38:15;;;;;;;14.60;8.17;;;1.40;70.40;;;;;;4955449;29;20040;-74
2021/03/08 08:40:43;;;;;;;17.13;8.80;;;1.50;70.30;;;;;;4954865;29;20036;-74
2021/03/08 08:43:17;;;;;;;14.70;8.67;;;1.60;69.60;;;;;;4955311;29;20373;-74
2021/03/08 08:45:44;;;;;;;14.10;8.53;;;1.70;69.80;;;;;;4955559;28;20098;-74
2021/03/08 08:48:10;;;;;;;16.13;8.53;;;1.70;69.40;;;;;;4955368;28;20392;-75
2021/03/08 08:50:47;;;;;;;17.00;9.03;;;1.70;69.40;;;;;;4947378;28;20106;-74
2021/03/08 08:53:37;;;;;;;14.77;8.50;;;1.80;69.80;;;;;;4951726;29;20039;-74
2021/03/08 08:56:07;;;;;;;19.20;9.53;;;1.80;69.10;;;;;;4952149;29;20035;-74
2021/03/08 08:58:46;;;;;;;16.30;8.67;;;1.80;69.20;;;;;;4951238;29;20135;-74
2021/03/08 09:01:13;;;;;;;18.50;8.90;;;1.90;69.70;;;;;;4937150;29;20102;-74
2021/03/08 09:03:59;;;;;;;15.83;8.83;;;2.00;69.20;;;;;;4960417;28;20039;-74
2021/03/08 09:06:59;;;;;;;15.77;9.20;;;2.10;68.90;;;;;;4967662;28;20391;-75
2021/03/08 09:09:31;;;;;;;21.13;9.40;;;2.10;68.80;;;;;;4958169;28;20031;-77
2021/03/08 09:12:00;;;;;;;14.98;8.18;;;2.10;68.90;;;;;;4954448;28;20130;-75
2021/03/08 09:14:34;;;;;;;13.60;7.20;;;2.10;68.80;;;;;;4955292;29;20036;-77
2021/03/08 09:17:06;;;;;;;14.93;7.80;;;2.30;69.00;;;;;;4954615;28;20199;-74
2021/03/08 09:19:32;;;;;;;12.73;7.65;;;2.30;68.30;;;;;;4953991;29;20039;-75
2021/03/08 09:22:26;;;;;;;17.27;7.60;;;2.40;67.40;;;;;;4954353;28;20032;-74
2021/03/08 09:25:26;;;;;;;11.53;6.90;;;2.40;67.30;;;;;;4954100;28;20039;-75
2021/03/08 09:28:12;;;;;;;11.93;6.60;;;2.50;66.70;;;;;;4943151;28;20039;-75
2021/03/08 09:30:49;;;;;;;9.83;5.83;;;2.60;66.10;;;;;;4943455;29;20039;-75
2021/03/08 09:33:48;;;;;;;11.93;6.20;;;2.80;65.30;;;;;;4954316;29;20159;-74
2021/03/08 09:36:38;;;;;;;10.33;6.00;;;2.90;64.10;;;;;;4949955;28;20058;-72
2021/03/08 09:39:12;;;;;;;10.53;5.50;;;2.90;64.80;;;;;;4952319;28;20074;-75
2021/03/08 09:42:30;;;;;;;10.27;5.77;;;2.90;64.80;;;;;;4952184;28;20039;-73
2021/03/08 09:45:18;;;;;;;10.83;5.50;;;2.90;64.00;;;;;;4950461;28;20048;-72
2021/03/08 09:48:14;;;;;;;12.07;6.40;;;3.10;65.20;;;;;;4933610;29;20035;-72
2021/03/08 09:53:59;;;;;;;9.63;5.63;;;3.20;63.70;;;;;;4935304;29;20039;-73
2021/03/08 09:56:27;;;;;;;12.37;5.53;;;3.30;64.70;;;;;;4934646;29;20035;-75
2021/03/08 09:59:01;;;;;;;11.10;5.17;;;3.40;64.90;;;;;;4934332;29;20047;-73
2021/03/08 10:01:27;;;;;;;8.67;5.13;;;3.50;62.40;;;;;;4934188;29;20053;-76
2021/03/08 10:03:52;;;;;;;9.87;5.13;;;3.60;61.60;;;;;;4934817;29;20056;-73
2021/03/08 10:06:26;;;;;;;11.17;5.10;;;3.60;61.60;;;;;;4952920;28;20039;-73
2021/03/08 10:08:53;;;;;;;10.83;5.80;;;3.60;63.20;;;;;;4953681;29;20039;-73
2021/03/08 10:11:31;;;;;;;9.13;4.70;;;3.70;63.20;;;;;;4954782;29;20397;-73
2021/03/08 10:13:59;;;;;;;10.60;4.93;;;3.80;61.60;;;;;;4953490;29;20075;-73
2021/03/08 10:16:29;;;;;;;8.87;5.07;;;3.90;62.40;;;;;;4953201;28;20433;-77
2021/03/08 10:19:06;;;;;;;8.13;4.80;;;4.00;62.10;;;;;;4953944;29;20039;-74
2021/03/08 10:21:43;;;;;;;8.63;4.70;;;4.00;60.30;;;;;;4952713;29;20468;-72
2021/03/08 10:24:09;;;;;;;7.80;4.10;;;4.00;59.60;;;;;;4953226;29;20473;-73
2021/03/08 10:26:44;;;;;;;8.43;4.70;;;4.00;59.50;;;;;;4953514;28;20101;-73
2021/03/08 10:29:13;;;;;;;7.57;4.43;;;4.20;59.80;;;;;;4953426;28;20151;-73
2021/03/08 10:35:12;;;;;;;8.07;3.90;;;4.20;59.20;;;;;;4945845;28;20085;-77
2021/03/08 10:38:10;;;;;;;7.93;4.00;;;4.20;59.80;;;;;;4962591;28;20395;-74
2021/03/08 10:40:41;;;;;;;7.60;3.93;;;4.40;59.50;;;;;;4946344;28;20039;-73
2021/03/08 10:43:25;;;;;;;6.97;3.60;;;4.50;60.90;;;;;;4961064;28;20698;-73
2021/03/08 10:46:02;;;;;;;7.63;3.90;;;4.70;59.40;;;;;;4969151;28;20038;-73
2021/03/08 10:48:34;;;;;;;6.73;3.90;;;4.70;57.70;;;;;;4971281;28;20035;-74
2021/03/08 10:51:34;;;;;;;;;;;;;;;;;;;;;
2021/03/08 10:57:13;;;;;;;6.20;3.50;;;5.10;56.80;;;;;;4973527;28;20051;-73
2021/03/08 11:00:14;;;;;;;6.47;3.30;;;5.20;58.80;;;;;;4956602;28;20109;-73
2021/03/08 11:02:50;;;;;;;6.73;3.67;;;5.20;56.90;;;;;;4937619;28;20071;-73
2021/03/08 11:05:30;;;;;;;;;;;;;;;;;;;;;
2021/03/08 11:08:18;;;;;;;7.63;3.67;;;5.50;57.90;;;;;;4955255;28;20441;-73
2021/03/08 11:11:04;;;;;;;7.33;3.50;;;5.50;57.40;;;;;;4963732;28;20046;-74
2021/03/08 11:13:48;;;;;;;8.10;3.80;;;5.60;56.80;;;;;;4950838;28;20035;-73
2021/03/08 11:16:17;;;;;;;5.47;3.57;;;5.60;56.10;;;;;;4933301;29;20130;-73
2021/03/08 11:18:46;;;;;;;8.80;4.60;;;5.70;55.90;;;;;;4950922;28;20039;-73
2021/03/08 11:21:33;;;;;;;5.80;3.37;;;5.80;57.10;;;;;;4967879;28;20046;-72
2021/03/08 11:24:18;;;;;;;7.30;4.17;;;5.70;57.00;;;;;;4976614;28;20118;-71
2021/03/08 11:27:20;;;;;;;6.80;4.23;;;5.80;57.20;;;;;;4942307;28;20498;-71
2021/03/08 11:30:10;;;;;;;7.57;4.10;;;5.90;57.70;;;;;;4973885;28;20113;-73
2021/03/08 11:32:37;;;;;;;8.10;4.50;;;5.90;56.10;;;;;;4976505;28;20038;-72
2021/03/08 11:35:04;;;;;;;6.80;4.20;;;6.00;57.40;;;;;;4963172;28;20116;-73
2021/03/08 11:37:34;;;;;;;9.73;4.20;;;6.10;57.90;;;;;;4971678;28;20043;-74
2021/03/08 11:40:08;;;;;;;6.73;4.50;;;6.10;56.10;;;;;;4968915;28;20034;-73
2021/03/08 11:42:38;;;;;;;8.03;3.80;;;6.10;55.20;;;;;;4966812;28;20032;-74
2021/03/08 11:45:07;;;;;;;6.53;4.20;;;6.10;55.90;;;;;;4966839;28;20099;-72
2021/03/08 11:47:44;;;;;;;6.77;3.97;;;6.20;54.40;;;;;;4958167;28;20139;-73
2021/03/08 11:50:21;;;;;;;8.00;3.50;;;6.20;56.20;;;;;;4947138;28;20039;-73
2021/03/08 11:52:51;;;;;;;7.73;4.27;;;6.40;56.40;;;;;;4965106;28;20043;-73
2021/03/08 11:55:29;;;;;;;9.50;4.20;;;6.50;54.60;;;;;;4959950;28;20536;-73
2021/03/08 11:58:41;;;;;;;;;;;;;;;;;;;;;
2021/03/08 12:01:23;;;;;;;7.05;3.80;;;6.70;54.70;;;;;;4976032;28;20029;-73
2021/03/08 12:03:57;;;;;;;6.28;3.47;;;6.90;55.30;;;;;;4953297;28;20044;-73
2021/03/08 12:06:23;;;;;;;5.73;2.87;;;7.00;53.30;;;;;;4967701;28;20060;-74
2021/03/08 12:09:18;;;;;;;4.50;2.73;;;7.00;52.60;;;;;;4966018;28;20050;-73
2021/03/08 12:14:30;;;;;;;4.57;2.70;;;7.20;51.20;;;;;;4975361;28;20436;-73
2021/03/08 12:16:56;;;;;;;4.97;2.80;;;7.50;52.10;;;;;;4963950;28;20047;-73
2021/03/08 12:19:21;;;;;;;5.70;3.00;;;7.60;50.20;;;;;;4964877;28;20039;-73
2021/03/08 12:21:48;;;;;;;5.20;3.03;;;7.70;49.50;;;;;;4953926;28;20043;-72
2021/03/08 12:24:14;;;;;;;6.27;2.90;;;7.80;50.50;;;;;;4970497;28;20046;-73
2021/03/08 12:26:40;;;;;;;5.87;2.87;;;8.10;50.50;;;;;;4975526;28;20039;-76
2021/03/08 12:29:06;;;;;;;5.23;2.47;;;8.20;47.30;;;;;;4959681;28;20043;-74
2021/03/08 12:31:32;;;;;;;4.50;2.40;;;8.50;48.00;;;;;;4970075;28;20035;-74
2021/03/08 12:34:00;;;;;;;5.67;3.00;;;8.70;47.40;;;;;;4958366;28;20038;-74
2021/03/08 12:36:30;;;;;;;5.30;2.73;;;8.90;46.60;;;;;;4964655;28;20039;-74
2021/03/08 12:38:56;;;;;;;4.87;2.73;;;9.10;46.00;;;;;;4959363;28;20039;-73
2021/03/08 12:44:51;;;;;;;4.60;2.60;;;9.70;46.70;;;;;;4914075;28;20088;-74
2021/03/08 12:47:34;;;;;;;7.38;2.83;;;10.10;44.90;;;;;;4968333;28;20133;-74
2021/03/08 12:50:19;;;;;;;4.90;2.15;;;10.30;45.90;;;;;;4957995;28;20063;-74
2021/03/08 12:53:31;;;;;;;6.25;2.75;;;10.50;43.60;;;;;;4964127;28;20035;-74
2021/03/08 12:56:03;;;;;;;4.83;2.83;;;10.80;41.90;;;;;;4970620;28;20448;-72
2021/03/08 12:58:41;;;;;;;5.30;2.70;;;11.00;42.40;;;;;;4966174;28;20046;-73
2021/03/08 13:01:10;;;;;;;3.22;2.38;;;11.20;42.70;;;;;;4955693;28;20032;-73
2021/03/08 13:03:39;;;;;;;3.80;2.33;;;11.40;42.70;;;;;;4954341;28;20051;-73
2021/03/08 13:06:35;;;;;;;5.32;2.90;;;11.80;41.50;;;;;;4962053;28;20173;-74
2021/03/08 13:09:05;;;;;;;6.18;2.75;;;12.60;40.90;;;;;;4961878;28;20047;-73
2021/03/08 13:11:31;;;;;;;3.92;2.58;;;13.80;38.50;;;;;;4967268;28;20042;-73
2021/03/08 13:13:57;;;;;;;6.97;2.85;;;15.00;37.80;;;;;;4974254;28;20042;-73
2021/03/08 13:16:23;;;;;;;4.30;2.70;;;16.10;35.40;;;;;;4967094;28;20177;-73
2021/03/08 13:18:49;;;;;;;4.72;2.40;;;17.00;33.20;;;;;;4964725;28;20074;-74
2021/03/08 13:21:15;;;;;;;3.70;2.30;;;17.70;32.60;;;;;;4960390;28;20091;-74
2021/03/08 13:23:40;;;;;;;3.70;2.40;;;18.40;32.50;;;;;;4970858;28;20102;-75
2021/03/08 13:26:06;;;;;;;5.38;2.50;;;18.70;31.30;;;;;;4969223;28;20039;-74
2021/03/08 13:28:32;;;;;;;3.22;2.28;;;19.00;30.10;;;;;;4960995;28;20027;-74
2021/03/08 13:30:57;;;;;;;4.15;2.20;;;19.20;30.10;;;;;;4974111;28;20480;-73
2021/03/08 13:33:23;;;;;;;3.33;2.47;;;19.00;30.00;;;;;;4958893;28;20094;-73
2021/03/08 13:35:49;;;;;;;4.32;2.40;;;18.50;30.70;;;;;;4964136;28;20039;-72
2021/03/08 13:38:14;;;;;;;3.00;2.53;;;18.30;30.00;;;;;;4969913;28;20042;-73
2021/03/08 13:40:40;;;;;;;4.85;3.00;;;18.40;30.60;;;;;;4973947;28;20085;-73